Forside
METAR-TAF:

METAR-TAF

Lufthavne :

Springdale, Arkansas, USA

Breddekreds: 36-11N, længdekreds: 094-07W, højde: 412 m

Aktuelle vejr

Denne rapport blev lavet for 9 timer og 21 minutter siden, kl. 02:48 UTC
Vind 12 kt fra sydsydøst med vindstød på up til 19 kt
Temperatur 3°C
Fugtighed 56%
Tryk 1014 hPa
Sigt: 16.1 km
Spredte skyer i en højde af 15000 ft

METAR: KASG 220248Z 15012G19KT 10SM SCT150 03/M05 A2995

Tid: 06:09 (12:09 UTC)


TAF: fraværende

Vejrobservationer og prognoser fra mere end 4000 lufthavne (METAR og TAF).

De gule og røde prikker repræsenterer de meteorologiske stationer.

Flyt musen over at se navnet på stationen.

Så klik over at se vejr observationer og prognoser.

At skifte det kort: Klik på de grønne knapper med et sort kors for at zoome ind; på den grønne knap med en bindestreg for at zoome ud; eller på de grønne pile for tilstødende kort.


METAR-TAF: